createdAt,value
2023-06-14T00:00:13.414Z,12.82
2023-06-14T00:02:42.811Z,12.56
2023-06-14T00:05:13.358Z,12.60
2023-06-14T00:07:44.726Z,12.51
2023-06-14T00:10:15.054Z,12.58
2023-06-14T00:12:43.987Z,12.68
2023-06-14T00:15:12.630Z,12.70
2023-06-14T00:17:41.588Z,12.90
2023-06-14T00:20:11.528Z,12.97
2023-06-14T00:22:40.120Z,12.88
2023-06-14T00:25:19.832Z,12.81
2023-06-14T00:27:54.441Z,12.56
2023-06-14T00:30:23.337Z,12.42
2023-06-14T00:32:52.655Z,12.41
2023-06-14T00:35:21.727Z,12.44
2023-06-14T00:37:50.143Z,12.42
2023-06-14T00:40:18.903Z,12.39
2023-06-14T00:42:47.984Z,12.35
2023-06-14T00:45:18.231Z,12.24
2023-06-14T00:47:49.853Z,12.21
2023-06-14T00:50:19.073Z,12.17
2023-06-14T00:52:48.012Z,12.27
2023-06-14T00:55:16.721Z,12.17
2023-06-14T00:57:45.363Z,12.07
2023-06-14T01:00:18.030Z,12.13
2023-06-14T01:02:46.752Z,12.06
2023-06-14T01:05:16.225Z,12.15
2023-06-14T01:08:04.229Z,12.16
2023-06-14T01:10:43.644Z,12.23
2023-06-14T01:13:20.815Z,12.14
2023-06-14T01:15:53.061Z,12.03
2023-06-14T01:18:21.735Z,12.06
2023-06-14T01:20:51.536Z,11.94
2023-06-14T01:23:23.640Z,11.88
2023-06-14T01:25:54.316Z,11.65
2023-06-14T01:28:24.131Z,11.70
2023-06-14T01:30:56.682Z,11.66
2023-06-14T01:33:30.124Z,11.50
2023-06-14T01:36:01.871Z,11.53
2023-06-14T01:38:35.069Z,11.58
2023-06-14T01:41:04.716Z,11.71
2023-06-14T01:43:35.074Z,11.72
2023-06-14T01:46:08.539Z,11.80
2023-06-14T01:48:37.991Z,11.69
2023-06-14T01:51:06.755Z,11.61
2023-06-14T01:53:37.322Z,11.52
2023-06-14T01:56:06.391Z,11.49
2023-06-14T01:58:35.055Z,11.43
2023-06-14T02:01:03.921Z,11.31
2023-06-14T02:03:32.513Z,11.31
2023-06-14T02:06:02.094Z,11.51
2023-06-14T02:08:30.490Z,11.24
2023-06-14T02:11:00.543Z,11.18
2023-06-14T02:13:29.657Z,11.07
2023-06-14T02:15:58.372Z,11.03
2023-06-14T02:18:27.339Z,11.09
2023-06-14T02:20:56.439Z,11.18
2023-06-14T02:23:25.087Z,11.12
2023-06-14T02:25:53.907Z,11.22
2023-06-14T02:28:24.312Z,11.31
2023-06-14T02:30:52.667Z,11.35
2023-06-14T02:33:26.453Z,11.18
2023-06-14T02:35:55.202Z,10.89
2023-06-14T02:38:23.892Z,10.80
2023-06-14T02:40:52.456Z,10.78
2023-06-14T02:43:23.149Z,10.80
2023-06-14T02:45:51.859Z,10.96
2023-06-14T02:48:20.918Z,10.98
2023-06-14T02:50:49.744Z,11.02
2023-06-14T02:53:18.381Z,11.09
2023-06-14T02:55:48.038Z,11.02
2023-06-14T02:58:17.489Z,11.04
2023-06-14T03:00:47.942Z,11.05
2023-06-14T03:03:17.579Z,10.92
2023-06-14T03:05:53.540Z,10.83
2023-06-14T03:08:28.445Z,10.87
2023-06-14T03:11:03.326Z,10.96
2023-06-14T03:13:33.363Z,10.91
2023-06-14T03:16:04.318Z,10.92
2023-06-14T03:18:36.759Z,10.87
2023-06-14T03:21:07.347Z,10.90
2023-06-14T03:23:36.291Z,10.79
2023-06-14T03:26:06.379Z,10.86
2023-06-14T03:28:35.680Z,10.91
2023-06-14T03:31:05.946Z,10.68
2023-06-14T03:33:35.377Z,10.61
2023-06-14T03:36:04.713Z,10.67
2023-06-14T03:38:34.214Z,10.76
2023-06-14T03:41:03.943Z,10.78
2023-06-14T03:43:32.394Z,10.87
2023-06-14T03:46:01.059Z,10.85
2023-06-14T03:48:33.041Z,10.89
2023-06-14T03:51:02.101Z,11.01
2023-06-14T03:53:31.881Z,11.09
2023-06-14T03:56:01.396Z,11.08
2023-06-14T03:58:39.153Z,11.16
2023-06-14T04:01:08.796Z,11.18
2023-06-14T04:03:38.702Z,11.27
2023-06-14T04:06:08.872Z,11.28
2023-06-14T04:08:37.595Z,11.44
2023-06-14T04:11:05.924Z,11.47
2023-06-14T04:13:36.318Z,11.66
2023-06-14T04:16:06.547Z,11.78
2023-06-14T04:18:38.782Z,11.81
2023-06-14T04:21:09.533Z,11.91
2023-06-14T04:23:39.263Z,12.02
2023-06-14T04:26:07.978Z,12.11
2023-06-14T04:28:41.972Z,12.28
2023-06-14T04:31:12.740Z,12.44
2023-06-14T04:33:46.661Z,12.51
2023-06-14T04:36:20.074Z,12.55
2023-06-14T04:38:55.314Z,12.55
2023-06-14T04:41:31.873Z,12.67
2023-06-14T04:44:02.779Z,12.74
2023-06-14T04:46:46.952Z,12.85
2023-06-14T04:49:20.816Z,12.91
2023-06-14T04:51:52.133Z,12.90
2023-06-14T04:54:20.942Z,12.99
2023-06-14T04:56:50.046Z,13.15
2023-06-14T04:59:19.217Z,13.29
2023-06-14T05:01:49.319Z,13.35
2023-06-14T05:04:18.697Z,13.47
2023-06-14T05:06:49.276Z,13.52
2023-06-14T05:09:18.317Z,13.65
2023-06-14T05:11:48.596Z,13.61
2023-06-14T05:14:17.693Z,13.77
2023-06-14T05:16:47.172Z,13.79
2023-06-14T05:19:15.795Z,13.85
2023-06-14T05:21:44.434Z,13.93
2023-06-14T05:24:14.542Z,14.03
2023-06-14T05:26:43.369Z,14.17
2023-06-14T05:29:11.680Z,14.27
2023-06-14T05:31:40.468Z,14.41
2023-06-14T05:34:09.037Z,14.60
2023-06-14T05:36:38.117Z,14.79
2023-06-14T05:39:07.844Z,14.82
2023-06-14T05:41:37.611Z,14.92
2023-06-14T05:44:06.409Z,14.88
2023-06-14T05:46:35.232Z,15.13
2023-06-14T05:49:04.000Z,15.32
2023-06-14T05:51:32.762Z,15.36
2023-06-14T05:54:01.474Z,15.60
2023-06-14T05:56:30.172Z,15.89
2023-06-14T05:59:00.083Z,16.36
2023-06-14T06:01:29.014Z,16.69
2023-06-14T06:03:58.208Z,17.16
2023-06-14T06:06:27.575Z,17.67
2023-06-14T06:08:56.191Z,18.16
2023-06-14T06:11:24.872Z,18.25
2023-06-14T06:13:53.206Z,18.62
2023-06-14T06:16:22.869Z,18.85
2023-06-14T06:18:51.216Z,19.18
2023-06-14T06:21:19.632Z,19.54
2023-06-14T06:23:48.277Z,19.59
2023-06-14T06:26:16.949Z,19.86
2023-06-14T06:28:45.823Z,19.66
2023-06-14T06:31:14.294Z,19.82
2023-06-14T06:33:43.966Z,20.07
2023-06-14T06:36:13.002Z,20.59
2023-06-14T06:38:41.919Z,20.83
2023-06-14T06:41:10.546Z,20.87
2023-06-14T06:43:38.822Z,21.22
2023-06-14T06:46:07.619Z,21.02
2023-06-14T06:48:36.530Z,21.36
2023-06-14T06:51:06.683Z,21.36
2023-06-14T06:53:41.987Z,21.60
2023-06-14T06:56:13.642Z,21.79
2023-06-14T06:58:42.248Z,21.78
2023-06-14T07:01:11.160Z,21.76
2023-06-14T07:03:40.073Z,22.17
2023-06-14T07:06:09.869Z,22.83
2023-06-14T07:08:39.742Z,22.64
2023-06-14T07:11:08.394Z,22.76
2023-06-14T07:13:37.055Z,23.25
2023-06-14T07:16:08.761Z,23.28
2023-06-14T07:18:38.566Z,23.37
2023-06-14T07:21:07.179Z,23.92
2023-06-14T07:23:37.167Z,24.52
2023-06-14T07:26:06.973Z,24.40
2023-06-14T07:28:36.336Z,24.92
2023-06-14T07:31:04.719Z,25.31
2023-06-14T07:33:33.193Z,25.33
2023-06-14T07:36:01.579Z,25.30
2023-06-14T07:38:30.531Z,24.45
2023-06-14T07:41:00.278Z,23.31
2023-06-14T07:43:28.555Z,22.10
2023-06-14T07:46:07.074Z,22.12
2023-06-14T07:48:36.955Z,22.29
2023-06-14T07:51:05.555Z,21.82
2023-06-14T07:53:34.002Z,21.49
2023-06-14T07:56:04.183Z,21.75
2023-06-14T07:58:32.559Z,22.39
2023-06-14T08:01:03.042Z,22.82
2023-06-14T08:03:31.874Z,23.21
2023-06-14T08:06:01.812Z,22.67
2023-06-14T08:08:30.234Z,22.70
2023-06-14T08:10:58.991Z,23.84
2023-06-14T08:13:28.600Z,23.39
2023-06-14T08:15:58.451Z,23.03
2023-06-14T08:18:26.988Z,22.41
2023-06-14T08:20:55.517Z,22.50
2023-06-14T08:23:25.008Z,22.77
2023-06-14T08:25:53.839Z,21.93
2023-06-14T08:28:22.620Z,23.63
2023-06-14T08:30:52.551Z,22.33
2023-06-14T08:33:20.935Z,22.09
2023-06-14T08:35:50.008Z,22.81
2023-06-14T08:38:18.623Z,24.32
2023-06-14T08:40:52.506Z,25.41
2023-06-14T08:43:21.477Z,24.57
2023-06-14T08:45:59.012Z,25.13
2023-06-14T08:48:29.217Z,25.99
2023-06-14T08:51:02.998Z,26.60
2023-06-14T08:53:36.730Z,26.99
2023-06-14T08:56:09.059Z,25.35
2023-06-14T08:58:39.273Z,26.35
2023-06-14T09:01:10.348Z,26.95
2023-06-14T09:03:42.043Z,27.12
2023-06-14T09:06:14.351Z,27.78
2023-06-14T09:08:45.932Z,27.76
2023-06-14T09:11:15.424Z,28.23
2023-06-14T09:13:44.537Z,28.22
2023-06-14T09:16:14.352Z,29.05
2023-06-14T09:18:45.385Z,27.10
2023-06-14T09:21:14.402Z,27.10
2023-06-14T09:23:44.493Z,27.04
2023-06-14T09:26:14.438Z,28.27
2023-06-14T09:28:47.031Z,27.88
2023-06-14T09:31:19.214Z,27.07
2023-06-14T09:33:51.710Z,28.09
2023-06-14T09:36:23.482Z,28.76
2023-06-14T09:38:55.730Z,29.27
2023-06-14T09:41:33.985Z,28.63
2023-06-14T09:44:07.459Z,28.80
2023-06-14T09:46:40.360Z,28.80
2023-06-14T09:49:09.898Z,29.09
2023-06-14T09:51:47.256Z,28.69
2023-06-14T09:54:22.751Z,28.88
2023-06-14T09:56:53.129Z,28.54
2023-06-14T09:59:33.037Z,29.13
2023-06-14T10:02:11.982Z,29.41
2023-06-14T10:04:47.253Z,29.11
2023-06-14T10:07:21.928Z,30.05
2023-06-14T10:09:51.487Z,30.41
2023-06-14T10:12:22.003Z,29.47
2023-06-14T10:14:55.984Z,28.87
2023-06-14T10:17:42.222Z,29.32
2023-06-14T10:20:27.967Z,28.61
2023-06-14T10:23:05.875Z,29.43
2023-06-14T10:25:35.637Z,29.85
2023-06-14T10:28:19.104Z,28.76
2023-06-14T10:31:08.516Z,29.43
2023-06-14T10:33:43.886Z,30.06
2023-06-14T10:36:31.563Z,30.36
2023-06-14T10:39:02.112Z,29.44
2023-06-14T10:41:31.914Z,27.56
2023-06-14T10:44:41.783Z,25.28
2023-06-14T10:47:14.041Z,24.07
2023-06-14T10:49:46.892Z,24.43
2023-06-14T10:52:20.601Z,25.58
2023-06-14T10:55:12.494Z,27.73
2023-06-14T11:00:23.204Z,29.49
2023-06-14T11:03:46.790Z,29.35
2023-06-14T11:06:25.289Z,30.37
2023-06-14T11:09:39.055Z,30.89
2023-06-14T11:12:12.883Z,32.04
2023-06-14T11:14:41.770Z,30.51
2023-06-14T11:17:10.482Z,29.58
2023-06-14T11:19:38.780Z,28.55
2023-06-14T11:22:08.734Z,28.21
2023-06-14T11:24:37.910Z,26.92
2023-06-14T11:27:07.506Z,24.82
2023-06-14T11:29:36.409Z,23.12
2023-06-14T11:32:08.438Z,23.28
2023-06-14T11:34:37.069Z,23.20
2023-06-14T11:37:06.076Z,22.84
2023-06-14T11:39:37.733Z,22.94
2023-06-14T11:42:07.267Z,23.50
2023-06-14T11:44:35.927Z,24.35
2023-06-14T11:47:06.980Z,23.97
2023-06-14T11:49:38.301Z,22.85
2023-06-14T11:52:07.441Z,22.24
2023-06-14T11:54:37.644Z,22.35
2023-06-14T11:57:08.392Z,22.32
2023-06-14T11:59:41.133Z,22.61
2023-06-14T12:02:10.161Z,22.63
2023-06-14T12:04:38.949Z,22.55
2023-06-14T12:07:16.260Z,22.56
2023-06-14T12:10:09.017Z,23.02
2023-06-14T12:12:40.107Z,22.44
2023-06-14T12:15:12.517Z,22.17
2023-06-14T12:17:43.070Z,22.86
2023-06-14T12:20:15.370Z,23.18
2023-06-14T12:22:53.946Z,25.77
2023-06-14T12:25:35.288Z,26.86
2023-06-14T12:28:08.995Z,27.16
2023-06-14T12:30:39.368Z,27.22
2023-06-14T12:33:08.826Z,27.25
2023-06-14T12:35:37.331Z,27.64
2023-06-14T12:38:05.986Z,26.61
2023-06-14T12:40:36.687Z,28.15
2023-06-14T12:43:05.352Z,28.35
2023-06-14T12:45:33.629Z,27.59
2023-06-14T12:48:02.490Z,27.85
2023-06-14T12:50:31.550Z,27.75
2023-06-14T12:53:00.486Z,27.22
2023-06-14T12:55:28.798Z,27.47
2023-06-14T12:57:58.493Z,27.61
2023-06-14T13:00:27.872Z,26.69
2023-06-14T13:02:56.583Z,26.07
2023-06-14T13:05:24.980Z,26.65
2023-06-14T13:07:53.885Z,26.78
2023-06-14T13:10:22.184Z,27.31
2023-06-14T13:12:50.867Z,26.76
2023-06-14T13:15:21.171Z,27.92
2023-06-14T13:17:50.229Z,27.58
2023-06-14T13:20:20.496Z,27.41
2023-06-14T13:22:49.520Z,27.25
2023-06-14T13:25:17.801Z,27.24
2023-06-14T13:27:46.541Z,28.04
2023-06-14T13:30:16.322Z,26.86
2023-06-14T13:32:48.623Z,27.28
2023-06-14T13:35:19.248Z,26.57
2023-06-14T13:37:47.882Z,27.26
2023-06-14T13:40:16.968Z,27.20
2023-06-14T13:42:46.026Z,26.53
2023-06-14T13:45:15.476Z,27.94
2023-06-14T13:47:45.925Z,26.32
2023-06-14T13:50:14.816Z,25.15
2023-06-14T13:52:43.647Z,26.73
2023-06-14T13:55:12.149Z,25.89
2023-06-14T13:57:40.604Z,25.50
2023-06-14T14:00:10.697Z,26.22
2023-06-14T14:02:42.066Z,25.54
2023-06-14T14:05:12.290Z,25.90
2023-06-14T14:07:40.616Z,25.19
2023-06-14T14:10:10.927Z,26.16
2023-06-14T14:12:39.932Z,26.73
2023-06-14T14:15:14.064Z,25.78
2023-06-14T14:17:43.042Z,26.21
2023-06-14T14:20:16.762Z,27.30
2023-06-14T14:22:45.503Z,27.31
2023-06-14T14:25:13.844Z,26.02
2023-06-14T14:27:42.592Z,27.54
2023-06-14T14:30:12.191Z,28.11
2023-06-14T14:32:40.582Z,27.37
2023-06-14T14:35:10.554Z,28.20
2023-06-14T14:37:40.201Z,28.66
2023-06-14T14:40:11.652Z,28.08
2023-06-14T14:42:40.015Z,28.91
2023-06-14T14:45:09.906Z,29.59
2023-06-14T14:47:38.527Z,29.29
2023-06-14T14:50:09.877Z,28.80
2023-06-14T14:52:39.642Z,25.97
2023-06-14T14:55:09.854Z,26.65
2023-06-14T14:57:38.520Z,27.53
2023-06-14T15:00:09.101Z,28.29
2023-06-14T15:02:37.587Z,27.91
2023-06-14T15:05:06.389Z,26.61
2023-06-14T15:07:35.251Z,27.46
2023-06-14T15:10:08.088Z,27.22
2023-06-14T15:12:37.266Z,28.15
2023-06-14T15:15:06.950Z,28.80
2023-06-14T15:17:35.552Z,27.80
2023-06-14T15:20:04.770Z,27.81
2023-06-14T15:22:33.120Z,27.96
2023-06-14T15:25:04.677Z,28.39
2023-06-14T15:27:34.627Z,27.64
2023-06-14T15:30:04.512Z,26.35
2023-06-14T15:32:32.893Z,27.34
2023-06-14T15:35:01.200Z,27.19
2023-06-14T15:37:29.496Z,25.58
2023-06-14T15:39:57.861Z,24.40
2023-06-14T15:42:27.315Z,23.75
2023-06-14T15:44:57.254Z,23.71
2023-06-14T15:47:26.370Z,22.67
2023-06-14T15:49:54.962Z,22.61
2023-06-14T15:52:25.279Z,22.57
2023-06-14T15:54:53.892Z,22.20
2023-06-14T15:57:23.095Z,21.94
2023-06-14T15:59:51.727Z,21.86
2023-06-14T16:02:21.501Z,21.57
2023-06-14T16:04:53.416Z,21.63
2023-06-14T16:07:21.869Z,21.59
2023-06-14T16:09:50.489Z,21.64
2023-06-14T16:12:18.800Z,22.32
2023-06-14T16:14:47.379Z,23.50
2023-06-14T16:17:15.969Z,24.64
2023-06-14T16:19:45.667Z,25.23
2023-06-14T16:22:14.316Z,25.33
2023-06-14T16:24:42.934Z,25.68
2023-06-14T16:27:13.525Z,25.02
2023-06-14T16:29:42.713Z,24.07
2023-06-14T16:32:12.313Z,23.38
2023-06-14T16:34:40.999Z,23.00
2023-06-14T16:37:10.723Z,23.14
2023-06-14T16:39:39.075Z,23.37
2023-06-14T16:42:08.342Z,23.48
2023-06-14T16:44:36.933Z,23.55
2023-06-14T16:47:07.441Z,23.26
2023-06-14T16:49:36.178Z,22.92
2023-06-14T16:52:04.970Z,23.02
2023-06-14T16:54:34.710Z,22.82
2023-06-14T16:57:03.062Z,22.52
2023-06-14T16:59:31.785Z,22.31
2023-06-14T17:02:06.336Z,21.74
2023-06-14T17:04:35.449Z,21.60
2023-06-14T17:07:05.487Z,21.77
2023-06-14T17:09:35.220Z,21.95
2023-06-14T17:12:03.955Z,21.81
2023-06-14T17:14:32.237Z,21.71
2023-06-14T17:17:01.333Z,21.63
2023-06-14T17:19:29.677Z,21.59
2023-06-14T17:21:59.176Z,21.82
2023-06-14T17:24:27.576Z,21.71
2023-06-14T17:26:57.910Z,21.72
2023-06-14T17:29:27.579Z,21.53
2023-06-14T17:31:56.294Z,21.63
2023-06-14T17:34:24.609Z,21.58
2023-06-14T17:36:52.972Z,21.52
2023-06-14T17:39:21.691Z,21.62
2023-06-14T17:41:50.389Z,21.54
2023-06-14T17:44:20.155Z,21.50
2023-06-14T17:46:48.780Z,21.38
2023-06-14T17:49:17.848Z,21.14
2023-06-14T17:51:46.409Z,21.12
2023-06-14T17:54:15.054Z,21.10
2023-06-14T17:56:44.281Z,20.81
2023-06-14T17:59:12.989Z,20.71
2023-06-14T18:01:42.992Z,20.77
2023-06-14T18:04:11.781Z,20.82
2023-06-14T18:06:40.159Z,20.64
2023-06-14T18:09:08.819Z,20.52
2023-06-14T18:11:37.458Z,20.44
2023-06-14T18:14:06.158Z,20.33
2023-06-14T18:16:35.799Z,20.24
2023-06-14T18:19:05.772Z,20.16
2023-06-14T18:21:34.327Z,19.99
2023-06-14T18:24:04.059Z,19.93
2023-06-14T18:26:32.727Z,19.88
2023-06-14T18:29:01.588Z,19.83
2023-06-14T18:31:30.350Z,19.71
2023-06-14T18:33:59.080Z,19.63
2023-06-14T18:36:29.073Z,19.57
2023-06-14T18:38:57.948Z,19.48
2023-06-14T18:41:26.800Z,19.29
2023-06-14T18:43:55.434Z,19.23
2023-06-14T18:46:25.253Z,19.28
2023-06-14T18:48:54.110Z,19.23
2023-06-14T18:51:22.839Z,19.20
2023-06-14T18:53:52.822Z,19.01
2023-06-14T18:56:22.295Z,18.81
2023-06-14T18:58:50.640Z,18.88
2023-06-14T19:01:19.337Z,18.64
2023-06-14T19:03:47.986Z,18.49
2023-06-14T19:06:16.735Z,18.38
2023-06-14T19:08:47.998Z,18.18
2023-06-14T19:11:17.691Z,18.05
2023-06-14T19:13:46.478Z,18.05
2023-06-14T19:16:15.109Z,18.03
2023-06-14T19:18:43.936Z,18.02
2023-06-14T19:21:12.989Z,17.94
2023-06-14T19:23:42.566Z,17.86
2023-06-14T19:26:11.258Z,17.88
2023-06-14T19:28:40.879Z,17.93
2023-06-14T19:31:09.497Z,17.84
2023-06-14T19:33:37.833Z,17.75
2023-06-14T19:36:06.649Z,17.66
2023-06-14T19:38:35.485Z,17.57
2023-06-14T19:41:04.322Z,17.45
2023-06-14T19:43:32.572Z,17.39
2023-06-14T19:46:02.323Z,17.33
2023-06-14T19:48:30.699Z,17.27
2023-06-14T19:50:59.376Z,17.27
2023-06-14T19:53:28.120Z,17.23
2023-06-14T19:55:56.840Z,17.22
2023-06-14T19:58:25.543Z,17.23
2023-06-14T20:00:53.882Z,17.24
2023-06-14T20:03:23.754Z,17.18
2023-06-14T20:05:54.547Z,17.11
2023-06-14T20:08:25.065Z,17.07
2023-06-14T20:10:53.662Z,16.97
2023-06-14T20:13:22.200Z,16.97
2023-06-14T20:15:51.048Z,16.92
2023-06-14T20:18:19.352Z,16.85
2023-06-14T20:20:52.420Z,16.82
2023-06-14T20:23:21.212Z,16.56
2023-06-14T20:25:52.084Z,16.18
2023-06-14T20:28:21.306Z,16.17
2023-06-14T20:30:49.893Z,16.15
2023-06-14T20:33:18.509Z,15.96
2023-06-14T20:35:48.611Z,15.84
2023-06-14T20:38:17.170Z,15.90
2023-06-14T20:40:47.910Z,15.98
2023-06-14T20:43:16.924Z,16.08
2023-06-14T20:45:45.548Z,16.09
2023-06-14T20:48:14.299Z,15.98
2023-06-14T20:50:43.233Z,15.80
2023-06-14T20:53:12.944Z,15.69
2023-06-14T20:55:41.835Z,15.66
2023-06-14T20:58:10.430Z,15.57
2023-06-14T21:00:40.880Z,15.58
2023-06-14T21:03:09.571Z,15.54
2023-06-14T21:05:38.272Z,15.48
2023-06-14T21:08:06.941Z,15.39
2023-06-14T21:10:36.970Z,15.35
2023-06-14T21:13:05.873Z,15.32
2023-06-14T21:15:34.724Z,15.27
2023-06-14T21:18:03.311Z,15.11
2023-06-14T21:20:32.031Z,14.98
2023-06-14T21:23:00.621Z,14.79
2023-06-14T21:25:29.198Z,14.72
2023-06-14T21:27:58.881Z,14.70
2023-06-14T21:30:35.797Z,14.65
2023-06-14T21:33:05.066Z,14.54
2023-06-14T21:35:33.682Z,14.44
2023-06-14T21:38:02.127Z,14.52
2023-06-14T21:40:30.969Z,14.62
2023-06-14T21:43:01.053Z,14.84
2023-06-14T21:45:29.673Z,15.14
2023-06-14T21:47:58.410Z,15.35
2023-06-14T21:50:27.686Z,15.39
2023-06-14T21:52:55.951Z,15.43
2023-06-14T21:55:26.528Z,15.51
2023-06-14T21:57:55.145Z,15.58
2023-06-14T22:00:25.950Z,15.67
2023-06-14T22:02:54.496Z,15.65
2023-06-14T22:05:23.176Z,15.70
2023-06-14T22:07:52.102Z,15.61
2023-06-14T22:10:21.303Z,15.68
2023-06-14T22:12:52.694Z,15.61
2023-06-14T22:15:21.381Z,15.47
2023-06-14T22:17:53.120Z,15.40
2023-06-14T22:20:21.847Z,15.38
2023-06-14T22:22:50.983Z,15.38
2023-06-14T22:25:19.833Z,15.20
2023-06-14T22:27:48.512Z,15.13
2023-06-14T22:30:18.389Z,15.20
2023-06-14T22:32:48.530Z,15.32
2023-06-14T22:35:19.585Z,15.37
2023-06-14T22:37:48.605Z,15.54
2023-06-14T22:40:18.102Z,15.56
2023-06-14T22:42:49.793Z,15.47
2023-06-14T22:45:24.947Z,15.52
2023-06-14T22:47:55.540Z,15.61
2023-06-14T22:50:25.657Z,15.61
2023-06-14T22:52:54.513Z,15.57
2023-06-14T22:55:27.357Z,15.66
2023-06-14T22:57:56.390Z,15.64
2023-06-14T23:00:25.078Z,15.56
2023-06-14T23:02:53.422Z,15.51
2023-06-14T23:05:22.229Z,15.55
2023-06-14T23:07:53.139Z,15.54
2023-06-14T23:10:24.403Z,15.45
2023-06-14T23:12:53.074Z,15.48
2023-06-14T23:15:21.383Z,15.32
2023-06-14T23:17:51.640Z,15.26
2023-06-14T23:20:21.418Z,15.19
2023-06-14T23:22:53.131Z,15.15
2023-06-14T23:25:21.808Z,15.07
2023-06-14T23:27:50.978Z,15.09
2023-06-14T23:30:19.778Z,15.16
2023-06-14T23:32:50.071Z,14.86
2023-06-14T23:35:19.996Z,14.76
2023-06-14T23:37:49.053Z,14.72
2023-06-14T23:40:19.153Z,14.63
2023-06-14T23:42:51.898Z,14.51
2023-06-14T23:45:20.709Z,14.49
2023-06-14T23:47:49.502Z,14.38
2023-06-14T23:50:18.145Z,14.40
2023-06-14T23:52:46.802Z,14.28
2023-06-14T23:55:21.268Z,14.27
2023-06-14T23:57:51.627Z,14.33
